Alexander, West Virginia
Current Conditions -  °F | °C
As of 5:55 PM on Thursday 27 Nov 2014 (Local Time) from KW22 Reporting Station
Light Snow Light Snow  
Wind Chill: 20°   Ceiling: 100
Heat Index: 28°   Visibility: 2mi
Dew Point: 28°   Wind: 9mph
Humidity: 100%   Direction: 240°WSW
Pressure: 30.17"   Gusts: NA
Location:  38.8347°N, 80.2578°W
Report Text: KW22 272255Z AUTO 24008KT 2SM -SN BKN001 BKN006 OVC010 M02/M02 A3017 RMK AO2
Loading
Personal Weather Stations






























Interactive Weather Map New forecast layout! Learn more

10-Day Weather Forecast

Advertisements
Track Severe Weather on mobile